Time;durP1;ratioP1;P1;durP2;ratioP2;P2;SDS_P1;SDS_P2;PMS_P1;PMS_P2;Temp;Humidity;BMP_temperature;BMP_pressure;BME280_temperature;BME280_humidity;BME280_pressure;Samples;Min_cycle;Max_cycle;Signal;HPM_P1;HPM_P2
2022/01/03 00:01:11;;;;;;;2.73;1.50;;;;;;;;;;5019021;28;20234;-84
2022/01/03 00:03:47;;;;;;;3.27;1.43;;;;;;;;;;5020063;28;20341;-84
2022/01/03 00:06:19;;;;;;;3.87;1.70;;;;;;;;;;5022480;28;20221;-84
2022/01/03 00:08:47;;;;;;;4.87;1.53;;;;;;;;;;5024268;28;20238;-85
2022/01/03 00:11:36;;;;;;;2.53;1.43;;;;;;;;;;5029123;28;20206;-84
2022/01/03 00:14:08;;;;;;;5.03;2.30;;;;;;;;;;5032868;28;20218;-81
2022/01/03 00:16:37;;;;;;;4.40;2.53;;;;;;;;;;5032086;28;20202;-84
2022/01/03 00:19:07;;;;;;;3.87;2.70;;;;;;;;;;5022933;28;20234;-85
2022/01/03 00:22:00;;;;;;;5.00;1.73;;;;;;;;;;5021913;28;20206;-84
2022/01/03 00:27:28;;;;;;;5.03;1.90;;;;;;;;;;5009891;28;20231;-83
2022/01/03 00:32:51;;;;;;;3.80;1.60;;;;;;;;;;5024326;28;20194;-83
2022/01/03 00:35:21;;;;;;;3.90;1.63;;;;;;;;;;5028584;28;20262;-84
2022/01/03 00:37:51;;;;;;;2.93;1.70;;;;;;;;;;5028659;28;20217;-82
2022/01/03 00:40:21;;;;;;;3.03;1.60;;;;;;;;;;5028919;28;20230;-84
2022/01/03 00:43:03;;;;;;;3.17;1.60;;;;;;;;;;5028183;28;20217;-85
2022/01/03 00:45:32;;;;;;;2.70;1.40;;;;;;;;;;5023634;28;20260;-84
2022/01/03 00:48:00;;;;;;;3.33;1.80;;;;;;;;;;5026438;28;20199;-85
2022/01/03 00:50:32;;;;;;;4.20;1.83;;;;;;;;;;5024509;28;20229;-84
2022/01/03 00:53:00;;;;;;;2.30;1.30;;;;;;;;;;5024313;28;20209;-84
2022/01/03 00:55:28;;;;;;;2.87;1.40;;;;;;;;;;5023958;28;20206;-83
2022/01/03 00:58:04;;;;;;;2.93;1.43;;;;;;;;;;5026034;28;20229;-85
2022/01/03 01:00:33;;;;;;;1.87;1.10;;;;;;;;;;5030764;28;20238;-85
2022/01/03 01:03:10;;;;;;;4.80;1.30;;;;;;;;;;5025772;28;20203;-84
2022/01/03 01:05:46;;;;;;;3.90;1.30;;;;;;;;;;5025092;28;20229;-84
2022/01/03 01:08:13;;;;;;;3.03;1.47;;;;;;;;;;5016696;28;20226;-85
2022/01/03 01:10:53;;;;;;;3.30;1.30;;;;;;;;;;5024431;28;20198;-83
2022/01/03 01:13:23;;;;;;;2.83;1.33;;;;;;;;;;5024600;28;20221;-85
2022/01/03 01:15:51;;;;;;;3.37;1.40;;;;;;;;;;5019092;28;20206;-83
2022/01/03 01:18:21;;;;;;;4.33;1.57;;;;;;;;;;5025257;28;20235;-84
2022/01/03 01:20:50;;;;;;;2.93;1.60;;;;;;;;;;5017666;28;20229;-83
2022/01/03 01:23:17;;;;;;;3.07;1.40;;;;;;;;;;5025556;28;20213;-84
2022/01/03 01:28:32;;;;;;;3.53;1.40;;;;;;;;;;5024284;28;20310;-84
2022/01/03 01:31:01;;;;;;;2.77;1.47;;;;;;;;;;5024037;28;20253;-84
2022/01/03 01:33:33;;;;;;;3.97;1.40;;;;;;;;;;5025128;28;20308;-84
2022/01/03 01:36:03;;;;;;;3.07;1.53;;;;;;;;;;5024943;28;20289;-84
2022/01/03 01:38:32;;;;;;;3.13;1.37;;;;;;;;;;5024456;28;20223;-84
2022/01/03 01:41:00;;;;;;;1.97;1.20;;;;;;;;;;5024163;28;20226;-83
2022/01/03 01:43:33;;;;;;;4.17;1.77;;;;;;;;;;5023942;28;20221;-82
2022/01/03 01:46:04;;;;;;;4.40;1.40;;;;;;;;;;5024610;28;20217;-85
2022/01/03 01:51:05;;;;;;;3.07;1.20;;;;;;;;;;5056941;28;20304;-83
2022/01/03 01:53:33;;;;;;;3.97;1.47;;;;;;;;;;5060078;28;20193;-83
2022/01/03 01:56:01;;;;;;;2.90;1.30;;;;;;;;;;5059555;28;20212;-84
2022/01/03 01:58:31;;;;;;;3.50;1.40;;;;;;;;;;5059541;28;20660;-83
2022/01/03 02:00:59;;;;;;;2.40;1.30;;;;;;;;;;5058615;28;20245;-83
2022/01/03 02:03:38;;;;;;;3.23;1.43;;;;;;;;;;5063143;28;20243;-84
2022/01/03 02:06:12;;;;;;;4.40;1.60;;;;;;;;;;5054090;28;20213;-84
2022/01/03 02:08:45;;;;;;;3.27;1.50;;;;;;;;;;5059742;28;20212;-83
2022/01/03 02:11:15;;;;;;;3.57;1.43;;;;;;;;;;5060319;28;20228;-83
2022/01/03 02:13:43;;;;;;;2.80;1.40;;;;;;;;;;5060238;28;20280;-84
2022/01/03 02:16:11;;;;;;;2.87;1.10;;;;;;;;;;5061421;28;20205;-84
2022/01/03 02:18:40;;;;;;;3.80;1.60;;;;;;;;;;5065179;28;20224;-83
2022/01/03 02:21:08;;;;;;;2.63;1.27;;;;;;;;;;5064237;28;20313;-84
2022/01/03 02:23:36;;;;;;;3.70;1.30;;;;;;;;;;5065785;28;20251;-83
2022/01/03 02:26:03;;;;;;;4.17;1.40;;;;;;;;;;5070614;28;20209;-84
2022/01/03 02:28:31;;;;;;;3.37;1.47;;;;;;;;;;5072090;28;20197;-83
2022/01/03 02:30:58;;;;;;;2.00;1.10;;;;;;;;;;5077874;28;20231;-83
2022/01/03 02:33:25;;;;;;;2.33;1.40;;;;;;;;;;5067376;28;20211;-84
2022/01/03 02:35:53;;;;;;;2.30;1.67;;;;;;;;;;5064440;28;20255;-84
2022/01/03 02:38:21;;;;;;;3.27;1.80;;;;;;;;;;5064613;28;20209;-84
2022/01/03 02:40:51;;;;;;;4.23;1.50;;;;;;;;;;5066304;28;20225;-83
2022/01/03 02:43:18;;;;;;;2.97;1.70;;;;;;;;;;5060028;28;20219;-84
2022/01/03 02:45:45;;;;;;;5.03;1.70;;;;;;;;;;5063256;28;20206;-84
2022/01/03 02:48:12;;;;;;;2.63;1.33;;;;;;;;;;5062395;28;20208;-83
2022/01/03 02:50:40;;;;;;;3.40;1.47;;;;;;;;;;5061614;28;20229;-84
2022/01/03 02:53:07;;;;;;;3.17;1.70;;;;;;;;;;5060690;28;20211;-83
2022/01/03 02:55:38;;;;;;;3.53;1.40;;;;;;;;;;5060393;28;20232;-83
2022/01/03 02:58:08;;;;;;;3.13;1.43;;;;;;;;;;5058895;28;20197;-83
2022/01/03 03:00:37;;;;;;;2.63;1.27;;;;;;;;;;5058199;28;20221;-83
2022/01/03 03:03:04;;;;;;;2.33;1.30;;;;;;;;;;5060528;28;20205;-83
2022/01/03 03:05:31;;;;;;;4.27;1.30;;;;;;;;;;5060225;28;20209;-83
2022/01/03 03:07:59;;;;;;;2.97;1.00;;;;;;;;;;5065203;28;20204;-83
2022/01/03 03:10:27;;;;;;;3.97;1.60;;;;;;;;;;5065318;28;20262;-82
2022/01/03 03:12:56;;;;;;;4.07;1.37;;;;;;;;;;5060462;28;20205;-83
2022/01/03 03:15:23;;;;;;;2.37;1.10;;;;;;;;;;5062763;28;20216;-83
2022/01/03 03:17:52;;;;;;;3.03;1.60;;;;;;;;;;5062294;28;20241;-83
2022/01/03 03:20:20;;;;;;;2.20;1.37;;;;;;;;;;5058863;28;20279;-84
2022/01/03 03:22:49;;;;;;;1.70;1.20;;;;;;;;;;5059537;28;20231;-83
2022/01/03 03:25:18;;;;;;;3.70;1.50;;;;;;;;;;5063183;28;20205;-83
2022/01/03 03:27:47;;;;;;;4.33;1.50;;;;;;;;;;5063861;28;20208;-83
2022/01/03 03:30:16;;;;;;;5.63;1.57;;;;;;;;;;5063355;28;20220;-84
2022/01/03 03:32:44;;;;;;;3.80;1.40;;;;;;;;;;5063483;28;20217;-83
2022/01/03 03:35:12;;;;;;;3.40;1.30;;;;;;;;;;5063177;28;20224;-82
2022/01/03 03:37:40;;;;;;;4.53;1.70;;;;;;;;;;5062696;28;20224;-84
2022/01/03 03:40:08;;;;;;;6.27;1.50;;;;;;;;;;5065253;28;20251;-84
2022/01/03 03:42:35;;;;;;;1.93;1.27;;;;;;;;;;5063909;28;20206;-82
2022/01/03 03:45:03;;;;;;;4.37;1.70;;;;;;;;;;5061585;28;20197;-83
2022/01/03 03:47:31;;;;;;;4.43;1.30;;;;;;;;;;5067147;28;20247;-83
2022/01/03 03:50:00;;;;;;;4.10;1.30;;;;;;;;;;5065269;28;20232;-83
2022/01/03 03:52:27;;;;;;;2.50;1.40;;;;;;;;;;5067487;28;20207;-83
2022/01/03 03:54:54;;;;;;;5.63;1.50;;;;;;;;;;5070563;28;20231;-83
2022/01/03 03:57:22;;;;;;;3.67;1.27;;;;;;;;;;5064362;28;20201;-83
2022/01/03 03:59:52;;;;;;;3.40;1.37;;;;;;;;;;5062005;28;20225;-83
2022/01/03 04:02:20;;;;;;;4.67;1.33;;;;;;;;;;5061090;28;20279;-82
2022/01/03 04:04:49;;;;;;;3.73;1.37;;;;;;;;;;5063671;28;20263;-83
2022/01/03 04:07:16;;;;;;;4.53;1.50;;;;;;;;;;5067849;28;20224;-83
2022/01/03 04:09:43;;;;;;;6.50;1.63;;;;;;;;;;5066924;28;20315;-83
2022/01/03 04:12:11;;;;;;;3.50;1.40;;;;;;;;;;5063964;28;20202;-83
2022/01/03 04:14:38;;;;;;;3.73;1.33;;;;;;;;;;5063718;28;20224;-83
2022/01/03 04:17:05;;;;;;;3.93;1.43;;;;;;;;;;5064072;28;20209;-83
2022/01/03 04:19:33;;;;;;;4.47;1.53;;;;;;;;;;5061731;28;20232;-82
2022/01/03 04:22:02;;;;;;;4.87;1.50;;;;;;;;;;5062460;28;20299;-83
2022/01/03 04:24:29;;;;;;;6.97;1.60;;;;;;;;;;5064090;28;20213;-83
2022/01/03 04:26:58;;;;;;;5.07;1.50;;;;;;;;;;5063462;28;20212;-83
2022/01/03 04:29:26;;;;;;;3.70;1.40;;;;;;;;;;5062610;28;20229;-83
2022/01/03 04:31:54;;;;;;;5.37;1.73;;;;;;;;;;5060356;28;20202;-83
2022/01/03 04:34:21;;;;;;;4.23;1.53;;;;;;;;;;5060397;28;20266;-84
2022/01/03 04:36:49;;;;;;;4.37;1.60;;;;;;;;;;5061383;28;20224;-83
2022/01/03 04:39:18;;;;;;;5.03;1.60;;;;;;;;;;5060560;28;20213;-83
2022/01/03 04:41:45;;;;;;;8.00;1.80;;;;;;;;;;5059834;28;20229;-83
2022/01/03 04:44:12;;;;;;;7.13;1.73;;;;;;;;;;5060537;28;20232;-83
2022/01/03 04:46:39;;;;;;;3.87;1.40;;;;;;;;;;5060099;28;20206;-83
2022/01/03 04:49:08;;;;;;;2.63;1.33;;;;;;;;;;5059420;28;20346;-83
2022/01/03 04:51:36;;;;;;;6.57;1.90;;;;;;;;;;5058635;28;20201;-83
2022/01/03 04:54:03;;;;;;;4.10;1.23;;;;;;;;;;5060340;28;20216;-82
2022/01/03 04:56:40;;;;;;;8.77;2.03;;;;;;;;;;5060907;28;20213;-86
2022/01/03 04:59:13;;;;;;;4.50;1.60;;;;;;;;;;5055261;28;20330;-85
2022/01/03 05:01:40;;;;;;;6.10;1.50;;;;;;;;;;5059658;28;20217;-83
2022/01/03 05:04:07;;;;;;;5.37;1.60;;;;;;;;;;5061368;28;20212;-83
2022/01/03 05:06:35;;;;;;;4.60;1.80;;;;;;;;;;5060824;28;20217;-83
2022/01/03 05:09:02;;;;;;;5.87;1.60;;;;;;;;;;5060827;28;20225;-84
2022/01/03 05:11:29;;;;;;;4.60;1.73;;;;;;;;;;5061001;28;20258;-84
2022/01/03 05:13:58;;;;;;;5.23;1.83;;;;;;;;;;5063047;28;20205;-83
2022/01/03 05:16:25;;;;;;;7.43;1.90;;;;;;;;;;5062115;28;20217;-84
2022/01/03 05:18:53;;;;;;;6.90;1.90;;;;;;;;;;5062934;28;20217;-83
2022/01/03 05:21:24;;;;;;;7.17;2.13;;;;;;;;;;5061805;28;20251;-84
2022/01/03 05:23:51;;;;;;;8.87;2.10;;;;;;;;;;5061419;28;20206;-81
2022/01/03 05:26:19;;;;;;;8.83;3.10;;;;;;;;;;5063349;28;20243;-84
2022/01/03 05:28:47;;;;;;;7.67;2.17;;;;;;;;;;5062456;28;20240;-83
2022/01/03 05:31:16;;;;;;;8.00;2.23;;;;;;;;;;5061158;28;20225;-83
2022/01/03 05:33:44;;;;;;;7.80;2.30;;;;;;;;;;5063087;28;20210;-83
2022/01/03 05:36:11;;;;;;;7.63;2.80;;;;;;;;;;5062541;28;20233;-84
2022/01/03 05:38:38;;;;;;;8.20;2.40;;;;;;;;;;5063089;28;20223;-83
2022/01/03 05:41:06;;;;;;;9.90;2.83;;;;;;;;;;5064211;28;20225;-84
2022/01/03 05:43:33;;;;;;;8.07;2.67;;;;;;;;;;5065792;28;20259;-83
2022/01/03 05:46:01;;;;;;;6.93;2.30;;;;;;;;;;5073035;28;20265;-84
2022/01/03 05:48:30;;;;;;;9.27;2.93;;;;;;;;;;5073432;28;20207;-84
2022/01/03 05:50:58;;;;;;;7.37;2.63;;;;;;;;;;5061066;28;20220;-83
2022/01/03 05:53:25;;;;;;;9.20;2.80;;;;;;;;;;5060370;28;20243;-84
2022/01/03 05:55:53;;;;;;;7.77;3.20;;;;;;;;;;5059694;28;20205;-84
2022/01/03 05:58:23;;;;;;;19.17;3.70;;;;;;;;;;5060007;28;20243;-84
2022/01/03 06:00:53;;;;;;;12.27;3.63;;;;;;;;;;5058026;28;20244;-83
2022/01/03 06:03:23;;;;;;;14.23;3.97;;;;;;;;;;5059682;28;20300;-83
2022/01/03 06:06:16;;;;;;;13.73;3.30;;;;;;;;;;5059986;28;20319;-83
2022/01/03 06:08:44;;;;;;;7.57;3.10;;;;;;;;;;5060040;28;20208;-82
2022/01/03 06:11:11;;;;;;;8.83;2.70;;;;;;;;;;5052009;28;20198;-83
2022/01/03 06:13:38;;;;;;;14.57;3.20;;;;;;;;;;5052024;28;20232;-83
2022/01/03 06:16:08;;;;;;;9.20;2.50;;;;;;;;;;5053771;28;20268;-83
2022/01/03 06:18:35;;;;;;;8.87;2.60;;;;;;;;;;5057005;28;20201;-84
2022/01/03 06:21:04;;;;;;;11.70;2.40;;;;;;;;;;5056347;28;20225;-83
2022/01/03 06:23:36;;;;;;;7.53;2.47;;;;;;;;;;5063882;28;20209;-82
2022/01/03 06:26:03;;;;;;;11.17;2.90;;;;;;;;;;5063445;28;20525;-84
2022/01/03 06:28:33;;;;;;;9.47;2.70;;;;;;;;;;5063152;28;20215;-82
2022/01/03 06:31:01;;;;;;;11.33;3.17;;;;;;;;;;5058583;28;20213;-83
2022/01/03 06:33:28;;;;;;;13.23;2.63;;;;;;;;;;5060633;28;20193;-83
2022/01/03 06:35:56;;;;;;;13.03;2.50;;;;;;;;;;5063864;28;20214;-84
2022/01/03 06:38:24;;;;;;;11.07;2.90;;;;;;;;;;5065631;28;20219;-84
2022/01/03 06:40:52;;;;;;;10.37;2.80;;;;;;;;;;5059180;28;20286;-84
2022/01/03 06:43:20;;;;;;;12.80;3.20;;;;;;;;;;5061571;28;20236;-84
2022/01/03 06:45:50;;;;;;;7.70;2.90;;;;;;;;;;5059786;28;20217;-82
2022/01/03 06:48:19;;;;;;;11.60;2.53;;;;;;;;;;5052657;28;20232;-84
2022/01/03 06:51:34;;;;;;;10.60;3.33;;;;;;;;;;5050382;28;20270;-88
2022/01/03 06:54:05;;;;;;;5.83;2.60;;;;;;;;;;5053368;28;20212;-86
2022/01/03 06:56:36;;;;;;;7.20;2.67;;;;;;;;;;5054476;28;20216;-86
2022/01/03 06:59:26;;;;;;;;;;;;;;;;;;;;;
2022/01/03 07:02:23;;;;;;;6.67;2.90;;;;;;;;;;5056882;28;20236;-84
2022/01/03 07:07:54;;;;;;;11.73;3.07;;;;;;;;;;5056542;28;20265;-84
2022/01/03 07:10:24;;;;;;;8.83;2.93;;;;;;;;;;5056339;28;20233;-84
2022/01/03 07:12:53;;;;;;;6.57;2.93;;;;;;;;;;5052608;28;20205;-83
2022/01/03 07:20:51;;;;;;;9.17;2.80;;;;;;;;;;5051162;28;20302;-83
2022/01/03 07:23:19;;;;;;;11.43;3.27;;;;;;;;;;5056554;28;20216;-81
2022/01/03 07:25:48;;;;;;;10.97;3.17;;;;;;;;;;5056421;28;20201;-83
2022/01/03 07:28:16;;;;;;;11.80;3.27;;;;;;;;;;5052816;28;20684;-84
2022/01/03 07:30:46;;;;;;;10.80;3.30;;;;;;;;;;5054227;28;20670;-83
2022/01/03 07:33:13;;;;;;;11.03;3.83;;;;;;;;;;5056362;28;20205;-83
2022/01/03 07:35:41;;;;;;;10.17;3.67;;;;;;;;;;5058390;28;20197;-83
2022/01/03 07:38:08;;;;;;;11.60;3.57;;;;;;;;;;5060915;28;20205;-83
2022/01/03 07:40:36;;;;;;;12.03;3.63;;;;;;;;;;5059713;28;20229;-82
2022/01/03 07:43:05;;;;;;;9.40;3.30;;;;;;;;;;5059851;28;20237;-83
2022/01/03 07:45:33;;;;;;;8.87;3.10;;;;;;;;;;5058229;28;20280;-82
2022/01/03 07:48:00;;;;;;;13.80;3.93;;;;;;;;;;5058876;28;20201;-83
2022/01/03 07:50:28;;;;;;;10.60;3.87;;;;;;;;;;5078939;23;20320;-83
2022/01/03 07:52:58;;;;;;;8.63;4.17;;;;;;;;;;5039542;28;20225;-84
2022/01/03 07:55:30;;;;;;;12.50;4.37;;;;;;;;;;5040101;28;20194;-83
2022/01/03 07:57:57;;;;;;;11.90;4.43;;;;;;;;;;5041188;28;20202;-82
2022/01/03 08:00:27;;;;;;;14.10;3.97;;;;;;;;;;5040442;28;20222;-81
2022/01/03 08:02:54;;;;;;;8.03;3.53;;;;;;;;;;5034525;28;20226;-82
2022/01/03 08:05:23;;;;;;;8.80;3.53;;;;;;;;;;5036098;28;20202;-84
2022/01/03 08:10:51;;;;;;;;;;;;;;;;;;;;;
2022/01/03 08:16:11;;;;;;;9.70;3.90;;;;;;;;;;5052800;28;20197;-84
2022/01/03 08:18:46;;;;;;;11.80;4.47;;;;;;;;;;5056325;28;20241;-85
2022/01/03 08:21:21;;;;;;;17.27;4.80;;;;;;;;;;5054418;28;20225;-81
2022/01/03 08:23:54;;;;;;;12.73;4.53;;;;;;;;;;5048268;28;20212;-84
2022/01/03 08:26:21;;;;;;;10.73;4.27;;;;;;;;;;5042988;28;20213;-84
2022/01/03 08:28:52;;;;;;;14.47;4.77;;;;;;;;;;5041481;28;20260;-84
2022/01/03 08:31:25;;;;;;;17.10;5.43;;;;;;;;;;5040798;28;20222;-83
2022/01/03 08:33:54;;;;;;;9.43;4.17;;;;;;;;;;5039152;28;20222;-82
2022/01/03 08:36:22;;;;;;;10.53;4.13;;;;;;;;;;5041750;28;20213;-83
2022/01/03 08:38:51;;;;;;;10.33;4.00;;;;;;;;;;5041249;28;20210;-84
2022/01/03 08:41:18;;;;;;;9.40;4.23;;;;;;;;;;5040742;28;20283;-84
2022/01/03 08:43:45;;;;;;;9.73;4.30;;;;;;;;;;5041246;28;20226;-83
2022/01/03 08:46:15;;;;;;;10.63;4.60;;;;;;;;;;5041264;28;20206;-84
2022/01/03 08:48:44;;;;;;;14.57;5.00;;;;;;;;;;5041970;28;20243;-84
2022/01/03 08:51:17;;;;;;;10.90;4.63;;;;;;;;;;5040242;28;20327;-84
2022/01/03 08:53:45;;;;;;;8.67;5.07;;;;;;;;;;5038458;28;20208;-83
2022/01/03 08:56:15;;;;;;;15.77;6.03;;;;;;;;;;5035486;28;20248;-83
2022/01/03 08:58:42;;;;;;;19.63;7.63;;;;;;;;;;5038995;28;20272;-84
2022/01/03 09:01:12;;;;;;;14.03;5.87;;;;;;;;;;5040473;28;20242;-84
2022/01/03 09:03:43;;;;;;;10.50;5.77;;;;;;;;;;5040148;28;20225;-85
2022/01/03 09:06:12;;;;;;;11.63;5.40;;;;;;;;;;5045085;28;20298;-84
2022/01/03 09:08:41;;;;;;;10.77;5.40;;;;;;;;;;5037195;28;20202;-83
2022/01/03 09:11:09;;;;;;;12.80;5.03;;;;;;;;;;5038649;28;20310;-83
2022/01/03 09:13:37;;;;;;;12.37;4.67;;;;;;;;;;5038508;28;20206;-83
2022/01/03 09:16:09;;;;;;;14.27;5.00;;;;;;;;;;5036898;28;20206;-82
2022/01/03 09:18:37;;;;;;;17.83;6.23;;;;;;;;;;5037809;28;20206;-80
2022/01/03 09:21:05;;;;;;;11.23;5.33;;;;;;;;;;5035826;28;20229;-82
2022/01/03 09:23:41;;;;;;;12.97;5.83;;;;;;;;;;5037170;28;20669;-82
2022/01/03 09:28:57;;;;;;;12.47;5.70;;;;;;;;;;5037110;28;20265;-81
2022/01/03 09:31:26;;;;;;;9.33;5.17;;;;;;;;;;5037059;28;20286;-83
2022/01/03 09:33:54;;;;;;;10.03;4.53;;;;;;;;;;5038477;28;20208;-82
2022/01/03 09:36:21;;;;;;;9.27;4.27;;;;;;;;;;5038546;28;20198;-81
2022/01/03 09:38:50;;;;;;;9.90;3.87;;;;;;;;;;5037392;28;20271;-83
2022/01/03 09:41:20;;;;;;;13.00;4.57;;;;;;;;;;5037443;28;20227;-83
2022/01/03 09:43:49;;;;;;;9.03;4.30;;;;;;;;;;5037738;28;20234;-83
2022/01/03 09:46:19;;;;;;;15.00;4.80;;;;;;;;;;5038615;28;20202;-83
2022/01/03 09:48:52;;;;;;;9.83;4.47;;;;;;;;;;5038797;28;20214;-83
2022/01/03 09:51:20;;;;;;;8.90;4.30;;;;;;;;;;5038601;28;20256;-82
2022/01/03 09:53:48;;;;;;;10.90;4.80;;;;;;;;;;5038897;28;20232;-83
2022/01/03 09:56:17;;;;;;;8.20;4.23;;;;;;;;;;5036520;28;20201;-83
2022/01/03 09:58:45;;;;;;;13.10;4.97;;;;;;;;;;5038359;28;20198;-81
2022/01/03 10:01:13;;;;;;;10.23;4.43;;;;;;;;;;5037053;28;20221;-82
2022/01/03 10:03:47;;;;;;;7.83;4.80;;;;;;;;;;5036198;28;20229;-83
2022/01/03 10:06:14;;;;;;;12.60;5.43;;;;;;;;;;5032890;28;20210;-83
2022/01/03 10:08:42;;;;;;;9.63;5.17;;;;;;;;;;5038061;28;20202;-85
2022/01/03 10:11:12;;;;;;;12.00;5.80;;;;;;;;;;5033940;28;20298;-83
2022/01/03 10:13:41;;;;;;;10.80;5.30;;;;;;;;;;5039319;28;20198;-82
2022/01/03 10:16:09;;;;;;;8.80;4.60;;;;;;;;;;5037053;28;20236;-82
2022/01/03 10:18:36;;;;;;;13.80;5.00;;;;;;;;;;5038113;28;20201;-82
2022/01/03 10:21:04;;;;;;;6.73;4.23;;;;;;;;;;5036743;28;20229;-81
2022/01/03 10:23:33;;;;;;;9.03;4.10;;;;;;;;;;5038617;28;20228;-82
2022/01/03 10:26:24;;;;;;;7.90;4.40;;;;;;;;;;5038485;28;20251;-79
2022/01/03 10:29:10;;;;;;;7.97;4.13;;;;;;;;;;5027815;28;20205;-81
2022/01/03 10:31:40;;;;;;;6.60;3.80;;;;;;;;;;5032818;28;20229;-82
2022/01/03 10:34:08;;;;;;;6.67;3.93;;;;;;;;;;5037549;28;20194;-82
2022/01/03 10:36:39;;;;;;;6.77;3.73;;;;;;;;;;5038691;28;20243;-82
2022/01/03 10:39:13;;;;;;;5.83;3.70;;;;;;;;;;5037776;28;20190;-82
2022/01/03 10:41:43;;;;;;;8.20;3.57;;;;;;;;;;5036142;28;20217;-81
2022/01/03 10:44:12;;;;;;;8.93;4.70;;;;;;;;;;5037949;28;20222;-81
2022/01/03 10:46:43;;;;;;;7.87;4.60;;;;;;;;;;5038391;28;20596;-79
2022/01/03 10:49:12;;;;;;;10.67;4.40;;;;;;;;;;5039617;28;20205;-79
2022/01/03 10:51:42;;;;;;;9.70;4.40;;;;;;;;;;5041918;28;20237;-81
2022/01/03 10:54:11;;;;;;;10.37;5.30;;;;;;;;;;5034597;28;20194;-83
2022/01/03 10:56:39;;;;;;;7.57;4.67;;;;;;;;;;5031179;28;20225;-80
2022/01/03 10:59:22;;;;;;;6.77;4.00;;;;;;;;;;5037574;28;20202;-81
2022/01/03 11:01:53;;;;;;;9.80;3.47;;;;;;;;;;5028010;28;20226;-81
2022/01/03 11:04:29;;;;;;;10.47;3.07;;;;;;;;;;5035461;28;20249;-81
2022/01/03 11:13:03;;;;;;;4.33;1.90;;;;;;;;;;5037056;28;20201;-85
2022/01/03 11:15:32;;;;;;;7.20;2.07;;;;;;;;;;5038892;28;20252;-81
2022/01/03 11:18:08;;;;;;;4.93;2.00;;;;;;;;;;5032084;28;20230;-82
2022/01/03 11:20:36;;;;;;;3.90;1.73;;;;;;;;;;5027469;28;20233;-81
2022/01/03 11:23:05;;;;;;;6.03;1.90;;;;;;;;;;5036542;28;20210;-82
2022/01/03 11:25:34;;;;;;;4.03;1.80;;;;;;;;;;5038874;28;20200;-82
2022/01/03 11:28:03;;;;;;;5.07;1.50;;;;;;;;;;5035441;28;20194;-82
2022/01/03 11:30:32;;;;;;;6.97;1.60;;;;;;;;;;5034692;28;20222;-81
2022/01/03 11:33:04;;;;;;;3.20;1.50;;;;;;;;;;5039532;28;20224;-82
2022/01/03 11:35:32;;;;;;;4.37;1.67;;;;;;;;;;5035301;28;20199;-82
2022/01/03 11:40:43;;;;;;;4.77;1.63;;;;;;;;;;5028867;28;20291;-82
2022/01/03 11:43:11;;;;;;;6.03;1.80;;;;;;;;;;5043286;28;20218;-83
2022/01/03 11:45:43;;;;;;;5.73;1.50;;;;;;;;;;5044354;28;20268;-81
2022/01/03 11:48:21;;;;;;;3.40;1.50;;;;;;;;;;5040827;28;20198;-82
2022/01/03 11:51:13;;;;;;;3.70;1.80;;;;;;;;;;5038974;28;20233;-87
2022/01/03 11:53:49;;;;;;;3.00;1.40;;;;;;;;;;5042582;28;20202;-86
2022/01/03 11:56:18;;;;;;;3.87;1.63;;;;;;;;;;5039466;28;20248;-83
2022/01/03 11:59:07;;;;;;;6.80;1.60;;;;;;;;;;5043280;28;20210;-85
2022/01/03 12:04:51;;;;;;;4.80;1.80;;;;;;;;;;4998749;28;20271;-82
2022/01/03 12:07:19;;;;;;;3.03;1.20;;;;;;;;;;5036253;28;20219;-84
2022/01/03 12:09:57;;;;;;;4.13;1.50;;;;;;;;;;5043376;28;20202;-84
2022/01/03 12:12:33;;;;;;;3.37;1.60;;;;;;;;;;5040652;28;20206;-85
2022/01/03 12:15:03;;;;;;;5.37;1.10;;;;;;;;;;5040626;28;20210;-83
2022/01/03 12:17:42;;;;;;;1.87;1.17;;;;;;;;;;5031519;28;20225;-80
2022/01/03 12:20:12;;;;;;;3.00;1.20;;;;;;;;;;5030928;28;20213;-77
2022/01/03 12:22:48;;;;;;;2.93;1.13;;;;;;;;;;5032126;28;20297;-81
2022/01/03 12:25:25;;;;;;;1.93;1.23;;;;;;;;;;5035514;28;20268;-81
2022/01/03 12:27:55;;;;;;;2.17;1.20;;;;;;;;;;5028935;28;20218;-79
2022/01/03 12:30:25;;;;;;;1.73;1.10;;;;;;;;;;5033106;28;20285;-77
2022/01/03 12:33:07;;;;;;;2.50;1.30;;;;;;;;;;5027483;28;20206;-79
2022/01/03 12:35:36;;;;;;;2.00;1.23;;;;;;;;;;5033599;28;20206;-79
2022/01/03 12:38:23;;;;;;;3.67;1.30;;;;;;;;;;5044744;28;20237;-80
2022/01/03 12:40:54;;;;;;;4.70;1.13;;;;;;;;;;5053762;28;20213;-85
2022/01/03 12:43:34;;;;;;;4.37;1.20;;;;;;;;;;5056700;28;20221;-85
2022/01/03 12:46:01;;;;;;;6.53;1.67;;;;;;;;;;5051901;28;20209;-85
2022/01/03 12:48:33;;;;;;;3.07;1.33;;;;;;;;;;5047420;28;20234;-82
2022/01/03 12:51:18;;;;;;;2.63;1.30;;;;;;;;;;5050675;28;20233;-83
2022/01/03 12:53:49;;;;;;;2.40;1.40;;;;;;;;;;5034792;28;20213;-81
2022/01/03 12:56:21;;;;;;;3.30;1.17;;;;;;;;;;5041542;28;20224;-81
2022/01/03 12:58:52;;;;;;;3.50;1.37;;;;;;;;;;5038795;28;20210;-80
2022/01/03 13:01:25;;;;;;;4.43;1.67;;;;;;;;;;5039217;28;20225;-82
2022/01/03 13:03:53;;;;;;;3.13;1.20;;;;;;;;;;5037968;28;20229;-79
2022/01/03 13:06:23;;;;;;;3.87;1.80;;;;;;;;;;5037605;28;20198;-81
2022/01/03 13:09:13;;;;;;;6.57;1.20;;;;;;;;;;5039004;28;20206;-82
2022/01/03 13:11:43;;;;;;;4.23;1.60;;;;;;;;;;5030806;28;20222;-83
2022/01/03 13:14:12;;;;;;;5.40;1.80;;;;;;;;;;5033140;28;20202;-84
2022/01/03 13:16:42;;;;;;;7.30;1.70;;;;;;;;;;5036012;28;20273;-84
2022/01/03 13:19:13;;;;;;;9.07;2.47;;;;;;;;;;5036639;28;20236;-85
2022/01/03 13:21:47;;;;;;;9.00;2.43;;;;;;;;;;5035887;28;20283;-85
2022/01/03 13:24:16;;;;;;;5.07;2.40;;;;;;;;;;5035393;28;20240;-82
2022/01/03 13:26:57;;;;;;;6.90;1.97;;;;;;;;;;5038292;28;20205;-79
2022/01/03 13:29:31;;;;;;;6.03;1.60;;;;;;;;;;5034100;28;20217;-79
2022/01/03 13:32:05;;;;;;;7.87;2.23;;;;;;;;;;5035912;28;20213;-77
2022/01/03 13:34:32;;;;;;;5.27;1.80;;;;;;;;;;5032693;28;20206;-82
2022/01/03 13:37:04;;;;;;;5.73;1.90;;;;;;;;;;5036852;28;20228;-80
2022/01/03 13:39:33;;;;;;;4.70;2.00;;;;;;;;;;5037680;28;20206;-83
2022/01/03 13:42:04;;;;;;;3.90;2.00;;;;;;;;;;5037490;28;20209;-83
2022/01/03 13:44:47;;;;;;;4.13;1.87;;;;;;;;;;5037652;28;20222;-83
2022/01/03 13:50:00;;;;;;;2.97;1.33;;;;;;;;;;5051110;22;20307;31
2022/01/03 13:52:32;;;;;;;4.63;1.80;;;;;;;;;;5049838;28;20240;-87
2022/01/03 13:55:05;;;;;;;4.23;2.47;;;;;;;;;;5054268;28;20227;-87
2022/01/03 13:57:35;;;;;;;4.27;1.70;;;;;;;;;;5049683;28;20201;-87
2022/01/03 14:00:05;;;;;;;4.27;1.57;;;;;;;;;;5053609;28;20266;-92
2022/01/03 14:02:36;;;;;;;3.77;1.53;;;;;;;;;;5056582;28;20213;-92
2022/01/03 14:05:04;;;;;;;2.97;1.70;;;;;;;;;;5053084;28;20256;-92
2022/01/03 14:07:38;;;;;;;5.67;2.30;;;;;;;;;;5058434;28;20206;-92
2022/01/03 14:10:14;;;;;;;3.90;1.50;;;;;;;;;;5045017;28;20212;-92
2022/01/03 14:12:52;;;;;;;4.80;2.00;;;;;;;;;;5057682;28;20311;-92
2022/01/03 14:15:22;;;;;;;10.50;2.03;;;;;;;;;;5061804;28;20208;-93
2022/01/03 14:17:54;;;;;;;4.63;1.97;;;;;;;;;;5056937;28;20240;-92
2022/01/03 14:20:22;;;;;;;4.73;1.70;;;;;;;;;;5067938;28;20276;-91
2022/01/03 14:23:06;;;;;;;4.50;2.00;;;;;;;;;;5071913;28;20231;-93
2022/01/03 14:25:38;;;;;;;3.63;1.80;;;;;;;;;;5057993;28;20201;-92
2022/01/03 14:28:05;;;;;;;3.70;1.77;;;;;;;;;;5046288;28;20225;-86
2022/01/03 14:30:33;;;;;;;3.67;1.73;;;;;;;;;;5053349;28;20221;-86
2022/01/03 14:33:03;;;;;;;2.63;1.30;;;;;;;;;;5048468;28;20229;-86
2022/01/03 14:35:35;;;;;;;1.80;1.40;;;;;;;;;;5053903;28;20213;-86
2022/01/03 14:38:06;;;;;;;4.40;1.70;;;;;;;;;;5054565;28;20250;-86
2022/01/03 14:40:41;;;;;;;4.33;1.70;;;;;;;;;;5051962;28;20217;-86
2022/01/03 14:43:10;;;;;;;4.20;1.70;;;;;;;;;;5042771;28;20254;-87
2022/01/03 14:45:38;;;;;;;2.63;1.40;;;;;;;;;;5052423;28;20215;-87
2022/01/03 14:48:05;;;;;;;5.17;1.60;;;;;;;;;;5049207;28;20205;-86
2022/01/03 14:50:35;;;;;;;3.97;1.80;;;;;;;;;;5050882;28;20221;-86
2022/01/03 14:53:04;;;;;;;3.37;1.47;;;;;;;;;;5052479;28;20224;-86
2022/01/03 14:55:37;;;;;;;3.53;1.40;;;;;;;;;;5063812;28;20268;-87
2022/01/03 14:58:05;;;;;;;3.50;1.50;;;;;;;;;;5053603;28;20204;-87
2022/01/03 15:00:33;;;;;;;5.17;1.47;;;;;;;;;;5053377;28;20363;-86
2022/01/03 15:03:01;;;;;;;4.27;1.50;;;;;;;;;;5054732;28;20231;-87
2022/01/03 15:05:29;;;;;;;4.17;2.00;;;;;;;;;;5048576;28;20280;-87
2022/01/03 15:07:56;;;;;;;3.87;1.80;;;;;;;;;;5059008;28;20206;-87
2022/01/03 15:10:24;;;;;;;4.77;1.50;;;;;;;;;;5066398;28;20225;-87
2022/01/03 15:12:54;;;;;;;3.97;1.60;;;;;;;;;;5062945;28;20212;-87
2022/01/03 15:15:22;;;;;;;2.80;1.17;;;;;;;;;;5059540;28;20209;-87
2022/01/03 15:17:50;;;;;;;3.73;1.80;;;;;;;;;;5060387;28;20213;-87
2022/01/03 15:20:17;;;;;;;3.80;1.90;;;;;;;;;;5056468;28;20284;-86
2022/01/03 15:22:44;;;;;;;3.80;1.73;;;;;;;;;;5049697;28;20232;-87
2022/01/03 15:25:12;;;;;;;3.23;1.50;;;;;;;;;;5057831;28;20220;-87
2022/01/03 15:27:46;;;;;;;4.23;1.77;;;;;;;;;;5051977;28;20252;-90
2022/01/03 15:30:20;;;;;;;4.40;1.70;;;;;;;;;;5050787;28;20208;-88
2022/01/03 15:32:50;;;;;;;3.70;1.87;;;;;;;;;;5051979;28;20230;-87
2022/01/03 15:35:18;;;;;;;3.23;1.63;;;;;;;;;;5055704;28;20229;-87
2022/01/03 15:37:45;;;;;;;6.90;2.23;;;;;;;;;;5054155;28;20216;-88
2022/01/03 15:40:48;;;;;;;3.90;1.40;;;;;;;;;;5054688;28;20229;-86
2022/01/03 15:54:51;;;;;;;3.93;1.60;;;;;;;;;;5012152;28;20206;-86
2022/01/03 16:03:28;;;;;;;4.90;1.70;;;;;;;;;;5006067;28;20246;-86